sensor_id;sensor_type;location;lat;lon;timestamp;P1;durP1;ratioP1;P2;durP2;ratioP2
43680;SDS011;29281;50.356;30.894;2022-08-16T00:00:02;7.89;;;3.65;;
43680;SDS011;29281;50.356;30.894;2022-08-16T00:01:11;8.24;;;3.33;;
43680;SDS011;29281;50.356;30.894;2022-08-16T00:02:18;9.10;;;3.66;;
43680;SDS011;29281;50.356;30.894;2022-08-16T00:03:22;7.31;;;3.22;;
43680;SDS011;29281;50.356;30.894;2022-08-16T00:04:27;8.58;;;3.74;;
43680;SDS011;29281;50.356;30.894;2022-08-16T00:05:31;6.97;;;3.49;;
43680;SDS011;29281;50.356;30.894;2022-08-16T00:06:37;5.89;;;3.08;;
43680;SDS011;29281;50.356;30.894;2022-08-16T00:07:45;6.53;;;3.25;;
43680;SDS011;29281;50.356;30.894;2022-08-16T00:08:58;6.84;;;3.18;;
43680;SDS011;29281;50.356;30.894;2022-08-16T00:10:00;6.81;;;3.13;;
43680;SDS011;29281;50.356;30.894;2022-08-16T00:11:11;7.68;;;3.34;;
43680;SDS011;29281;50.356;30.894;2022-08-16T00:12:15;4.34;;;3.38;;
43680;SDS011;29281;50.356;30.894;2022-08-16T00:13:20;8.08;;;3.77;;
43680;SDS011;29281;50.356;30.894;2022-08-16T00:14:25;7.40;;;3.28;;
43680;SDS011;29281;50.356;30.894;2022-08-16T00:16:46;6.90;;;3.53;;
43680;SDS011;29281;50.356;30.894;2022-08-16T00:17:51;10.08;;;3.77;;
43680;SDS011;29281;50.356;30.894;2022-08-16T00:18:56;7.67;;;3.49;;
43680;SDS011;29281;50.356;30.894;2022-08-16T00:20:06;7.76;;;3.86;;
43680;SDS011;29281;50.356;30.894;2022-08-16T00:21:14;6.71;;;3.65;;
43680;SDS011;29281;50.356;30.894;2022-08-16T00:22:19;6.38;;;3.30;;
43680;SDS011;29281;50.356;30.894;2022-08-16T00:23:25;7.52;;;3.72;;
43680;SDS011;29281;50.356;30.894;2022-08-16T00:24:31;7.57;;;3.77;;
43680;SDS011;29281;50.356;30.894;2022-08-16T00:25:39;8.02;;;3.69;;
43680;SDS011;29281;50.356;30.894;2022-08-16T00:26:52;9.79;;;3.68;;
43680;SDS011;29281;50.356;30.894;2022-08-16T00:27:58;8.49;;;3.57;;
43680;SDS011;29281;50.356;30.894;2022-08-16T00:29:08;5.90;;;3.39;;
43680;SDS011;29281;50.356;30.894;2022-08-16T00:30:17;6.32;;;3.59;;
43680;SDS011;29281;50.356;30.894;2022-08-16T00:31:24;7.66;;;3.66;;
43680;SDS011;29281;50.356;30.894;2022-08-16T00:32:29;6.01;;;3.69;;
43680;SDS011;29281;50.356;30.894;2022-08-16T00:33:34;6.77;;;3.66;;
43680;SDS011;29281;50.356;30.894;2022-08-16T00:34:45;8.38;;;3.52;;
43680;SDS011;29281;50.356;30.894;2022-08-16T00:35:50;7.35;;;3.60;;
43680;SDS011;29281;50.356;30.894;2022-08-16T00:37:04;10.76;;;3.79;;
43680;SDS011;29281;50.356;30.894;2022-08-16T00:38:08;8.24;;;3.74;;
43680;SDS011;29281;50.356;30.894;2022-08-16T00:39:13;6.98;;;3.73;;
43680;SDS011;29281;50.356;30.894;2022-08-16T00:40:24;8.32;;;3.95;;
43680;SDS011;29281;50.356;30.894;2022-08-16T00:41:45;5.68;;;3.71;;
43680;SDS011;29281;50.356;30.894;2022-08-16T00:42:52;7.08;;;3.96;;
43680;SDS011;29281;50.356;30.894;2022-08-16T00:43:59;7.36;;;3.76;;
43680;SDS011;29281;50.356;30.894;2022-08-16T00:45:15;6.74;;;3.99;;
43680;SDS011;29281;50.356;30.894;2022-08-16T00:46:35;6.34;;;3.18;;
43680;SDS011;29281;50.356;30.894;2022-08-16T00:47:45;6.48;;;3.62;;
43680;SDS011;29281;50.356;30.894;2022-08-16T00:48:59;5.56;;;3.64;;
43680;SDS011;29281;50.356;30.894;2022-08-16T00:50:07;9.20;;;3.61;;
43680;SDS011;29281;50.356;30.894;2022-08-16T00:51:13;7.15;;;4.06;;
43680;SDS011;29281;50.356;30.894;2022-08-16T00:52:19;9.92;;;4.43;;
43680;SDS011;29281;50.356;30.894;2022-08-16T00:53:25;8.74;;;3.91;;
43680;SDS011;29281;50.356;30.894;2022-08-16T00:54:39;8.96;;;4.04;;
43680;SDS011;29281;50.356;30.894;2022-08-16T00:55:48;8.54;;;3.84;;
43680;SDS011;29281;50.356;30.894;2022-08-16T00:56:56;6.84;;;3.67;;
43680;SDS011;29281;50.356;30.894;2022-08-16T00:58:02;5.57;;;3.66;;
43680;SDS011;29281;50.356;30.894;2022-08-16T00:59:10;6.07;;;3.93;;
43680;SDS011;29281;50.356;30.894;2022-08-16T01:00:20;7.53;;;3.92;;
43680;SDS011;29281;50.356;30.894;2022-08-16T01:02:37;5.78;;;3.56;;
43680;SDS011;29281;50.356;30.894;2022-08-16T01:03:44;6.13;;;3.78;;
43680;SDS011;29281;50.356;30.894;2022-08-16T01:04:51;6.96;;;4.02;;
43680;SDS011;29281;50.356;30.894;2022-08-16T01:06:02;7.22;;;3.82;;
43680;SDS011;29281;50.356;30.894;2022-08-16T01:07:10;7.33;;;3.91;;
43680;SDS011;29281;50.356;30.894;2022-08-16T01:08:18;7.37;;;4.06;;
43680;SDS011;29281;50.356;30.894;2022-08-16T01:09:25;6.79;;;3.76;;
43680;SDS011;29281;50.356;30.894;2022-08-16T01:10:33;8.76;;;3.89;;
43680;SDS011;29281;50.356;30.894;2022-08-16T01:11:39;5.96;;;3.88;;
43680;SDS011;29281;50.356;30.894;2022-08-16T01:12:45;6.05;;;4.23;;
43680;SDS011;29281;50.356;30.894;2022-08-16T01:13:51;7.09;;;3.83;;
43680;SDS011;29281;50.356;30.894;2022-08-16T01:14:57;6.84;;;4.21;;
43680;SDS011;29281;50.356;30.894;2022-08-16T01:17:19;6.44;;;3.99;;
43680;SDS011;29281;50.356;30.894;2022-08-16T01:18:28;6.77;;;4.18;;
43680;SDS011;29281;50.356;30.894;2022-08-16T01:19:37;6.05;;;4.22;;
43680;SDS011;29281;50.356;30.894;2022-08-16T01:21:01;6.42;;;4.48;;
43680;SDS011;29281;50.356;30.894;2022-08-16T01:26:38;8.53;;;4.09;;
43680;SDS011;29281;50.356;30.894;2022-08-16T01:27:53;5.98;;;4.20;;
43680;SDS011;29281;50.356;30.894;2022-08-16T01:29:08;8.56;;;3.88;;
43680;SDS011;29281;50.356;30.894;2022-08-16T01:30:30;6.42;;;4.20;;
43680;SDS011;29281;50.356;30.894;2022-08-16T01:31:33;6.97;;;4.39;;
43680;SDS011;29281;50.356;30.894;2022-08-16T01:32:38;6.43;;;4.16;;
43680;SDS011;29281;50.356;30.894;2022-08-16T01:33:48;6.86;;;4.30;;
43680;SDS011;29281;50.356;30.894;2022-08-16T01:34:52;7.13;;;4.14;;
43680;SDS011;29281;50.356;30.894;2022-08-16T01:36:02;8.24;;;4.31;;
43680;SDS011;29281;50.356;30.894;2022-08-16T01:37:12;5.77;;;4.14;;
43680;SDS011;29281;50.356;30.894;2022-08-16T01:39:31;7.10;;;4.36;;
43680;SDS011;29281;50.356;30.894;2022-08-16T01:40:40;5.36;;;3.99;;
43680;SDS011;29281;50.356;30.894;2022-08-16T01:41:46;9.61;;;4.36;;
43680;SDS011;29281;50.356;30.894;2022-08-16T01:42:50;6.72;;;4.31;;
43680;SDS011;29281;50.356;30.894;2022-08-16T01:43:57;6.23;;;4.01;;
43680;SDS011;29281;50.356;30.894;2022-08-16T01:45:05;6.58;;;3.88;;
43680;SDS011;29281;50.356;30.894;2022-08-16T01:46:45;7.22;;;4.06;;
43680;SDS011;29281;50.356;30.894;2022-08-16T01:47:29;8.15;;;4.42;;
43680;SDS011;29281;50.356;30.894;2022-08-16T01:48:34;5.88;;;4.64;;
43680;SDS011;29281;50.356;30.894;2022-08-16T01:49:41;7.99;;;4.77;;
43680;SDS011;29281;50.356;30.894;2022-08-16T01:50:46;9.42;;;5.18;;
43680;SDS011;29281;50.356;30.894;2022-08-16T01:51:56;9.15;;;4.38;;
43680;SDS011;29281;50.356;30.894;2022-08-16T01:53:07;10.23;;;4.51;;
43680;SDS011;29281;50.356;30.894;2022-08-16T01:54:18;6.43;;;4.11;;
43680;SDS011;29281;50.356;30.894;2022-08-16T01:55:27;5.70;;;4.36;;
43680;SDS011;29281;50.356;30.894;2022-08-16T01:56:33;7.27;;;4.42;;
43680;SDS011;29281;50.356;30.894;2022-08-16T01:57:39;6.08;;;4.06;;
43680;SDS011;29281;50.356;30.894;2022-08-16T01:58:44;8.83;;;4.64;;
43680;SDS011;29281;50.356;30.894;2022-08-16T01:59:51;7.43;;;4.28;;
43680;SDS011;29281;50.356;30.894;2022-08-16T02:00:57;8.38;;;4.39;;
43680;SDS011;29281;50.356;30.894;2022-08-16T02:02:03;6.03;;;4.12;;
43680;SDS011;29281;50.356;30.894;2022-08-16T02:03:09;7.28;;;4.47;;
43680;SDS011;29281;50.356;30.894;2022-08-16T02:04:14;7.68;;;4.23;;
43680;SDS011;29281;50.356;30.894;2022-08-16T02:05:23;7.94;;;4.40;;
43680;SDS011;29281;50.356;30.894;2022-08-16T02:06:29;9.16;;;4.34;;
43680;SDS011;29281;50.356;30.894;2022-08-16T02:07:35;7.55;;;4.46;;
43680;SDS011;29281;50.356;30.894;2022-08-16T02:08:44;8.23;;;4.59;;
43680;SDS011;29281;50.356;30.894;2022-08-16T02:09:52;7.14;;;4.35;;
43680;SDS011;29281;50.356;30.894;2022-08-16T02:11:01;7.87;;;4.34;;
43680;SDS011;29281;50.356;30.894;2022-08-16T02:12:07;7.74;;;4.37;;
43680;SDS011;29281;50.356;30.894;2022-08-16T02:13:14;5.91;;;4.39;;
43680;SDS011;29281;50.356;30.894;2022-08-16T02:14:24;10.54;;;4.38;;
43680;SDS011;29281;50.356;30.894;2022-08-16T02:15:32;8.28;;;4.54;;
43680;SDS011;29281;50.356;30.894;2022-08-16T02:16:45;9.28;;;4.12;;
43680;SDS011;29281;50.356;30.894;2022-08-16T02:17:48;7.83;;;4.15;;
43680;SDS011;29281;50.356;30.894;2022-08-16T02:18:54;7.13;;;4.74;;
43680;SDS011;29281;50.356;30.894;2022-08-16T02:19:58;7.99;;;4.55;;
43680;SDS011;29281;50.356;30.894;2022-08-16T02:21:08;8.30;;;4.16;;
43680;SDS011;29281;50.356;30.894;2022-08-16T02:22:17;7.16;;;4.14;;
43680;SDS011;29281;50.356;30.894;2022-08-16T02:23:30;9.09;;;4.62;;
43680;SDS011;29281;50.356;30.894;2022-08-16T02:24:36;9.05;;;4.47;;
43680;SDS011;29281;50.356;30.894;2022-08-16T02:25:48;9.46;;;4.26;;
43680;SDS011;29281;50.356;30.894;2022-08-16T02:26:54;7.79;;;4.77;;
43680;SDS011;29281;50.356;30.894;2022-08-16T02:27:59;6.58;;;4.46;;
43680;SDS011;29281;50.356;30.894;2022-08-16T02:29:10;5.37;;;4.21;;
43680;SDS011;29281;50.356;30.894;2022-08-16T02:30:22;6.75;;;4.52;;
43680;SDS011;29281;50.356;30.894;2022-08-16T02:31:29;8.23;;;4.46;;
43680;SDS011;29281;50.356;30.894;2022-08-16T02:32:37;8.38;;;4.99;;
43680;SDS011;29281;50.356;30.894;2022-08-16T02:33:42;8.47;;;4.68;;
43680;SDS011;29281;50.356;30.894;2022-08-16T02:34:54;5.89;;;4.39;;
43680;SDS011;29281;50.356;30.894;2022-08-16T02:35:58;8.19;;;4.64;;
43680;SDS011;29281;50.356;30.894;2022-08-16T02:37:04;8.70;;;4.55;;
43680;SDS011;29281;50.356;30.894;2022-08-16T02:38:08;9.89;;;4.72;;
43680;SDS011;29281;50.356;30.894;2022-08-16T02:39:12;10.17;;;4.60;;
43680;SDS011;29281;50.356;30.894;2022-08-16T02:40:23;6.91;;;4.26;;
43680;SDS011;29281;50.356;30.894;2022-08-16T02:41:32;7.85;;;4.85;;
43680;SDS011;29281;50.356;30.894;2022-08-16T02:42:42;8.68;;;4.56;;
43680;SDS011;29281;50.356;30.894;2022-08-16T02:43:50;9.10;;;4.76;;
43680;SDS011;29281;50.356;30.894;2022-08-16T02:44:55;7.36;;;4.53;;
43680;SDS011;29281;50.356;30.894;2022-08-16T02:46:00;7.44;;;4.54;;
43680;SDS011;29281;50.356;30.894;2022-08-16T02:47:09;7.71;;;4.72;;
43680;SDS011;29281;50.356;30.894;2022-08-16T02:48:15;7.31;;;4.75;;
43680;SDS011;29281;50.356;30.894;2022-08-16T02:49:24;6.04;;;4.19;;
43680;SDS011;29281;50.356;30.894;2022-08-16T02:50:37;7.44;;;4.74;;
43680;SDS011;29281;50.356;30.894;2022-08-16T02:51:44;6.88;;;4.61;;
43680;SDS011;29281;50.356;30.894;2022-08-16T02:52:48;8.02;;;5.19;;
43680;SDS011;29281;50.356;30.894;2022-08-16T02:53:54;7.48;;;5.69;;
43680;SDS011;29281;50.356;30.894;2022-08-16T02:54:59;8.29;;;6.05;;
43680;SDS011;29281;50.356;30.894;2022-08-16T02:56:03;7.89;;;6.56;;
43680;SDS011;29281;50.356;30.894;2022-08-16T02:57:11;8.31;;;6.18;;
43680;SDS011;29281;50.356;30.894;2022-08-16T02:58:15;10.09;;;7.09;;
43680;SDS011;29281;50.356;30.894;2022-08-16T02:59:19;9.18;;;7.09;;
43680;SDS011;29281;50.356;30.894;2022-08-16T03:00:26;9.55;;;7.40;;
43680;SDS011;29281;50.356;30.894;2022-08-16T03:01:38;8.50;;;7.55;;
43680;SDS011;29281;50.356;30.894;2022-08-16T03:02:49;9.63;;;6.66;;
43680;SDS011;29281;50.356;30.894;2022-08-16T03:03:58;9.35;;;5.98;;
43680;SDS011;29281;50.356;30.894;2022-08-16T03:05:06;8.00;;;5.94;;
43680;SDS011;29281;50.356;30.894;2022-08-16T03:06:18;8.61;;;5.44;;
43680;SDS011;29281;50.356;30.894;2022-08-16T03:07:26;10.09;;;6.06;;
43680;SDS011;29281;50.356;30.894;2022-08-16T03:08:32;8.86;;;5.71;;
43680;SDS011;29281;50.356;30.894;2022-08-16T03:09:39;9.50;;;5.45;;
43680;SDS011;29281;50.356;30.894;2022-08-16T03:10:45;6.68;;;5.24;;
43680;SDS011;29281;50.356;30.894;2022-08-16T03:11:51;7.33;;;5.26;;
43680;SDS011;29281;50.356;30.894;2022-08-16T03:12:55;9.10;;;5.42;;
43680;SDS011;29281;50.356;30.894;2022-08-16T03:14:03;8.81;;;5.82;;
43680;SDS011;29281;50.356;30.894;2022-08-16T03:15:10;9.73;;;5.76;;
43680;SDS011;29281;50.356;30.894;2022-08-16T03:16:19;10.31;;;5.71;;
43680;SDS011;29281;50.356;30.894;2022-08-16T03:17:26;9.87;;;6.10;;
43680;SDS011;29281;50.356;30.894;2022-08-16T03:18:33;12.09;;;5.78;;
43680;SDS011;29281;50.356;30.894;2022-08-16T03:19:38;7.89;;;5.77;;
43680;SDS011;29281;50.356;30.894;2022-08-16T03:20:52;9.34;;;6.27;;
43680;SDS011;29281;50.356;30.894;2022-08-16T03:21:58;10.73;;;5.70;;
43680;SDS011;29281;50.356;30.894;2022-08-16T03:23:03;9.63;;;5.49;;
43680;SDS011;29281;50.356;30.894;2022-08-16T03:24:08;7.43;;;5.25;;
43680;SDS011;29281;50.356;30.894;2022-08-16T03:25:15;6.98;;;4.79;;
43680;SDS011;29281;50.356;30.894;2022-08-16T03:26:30;9.72;;;4.68;;
43680;SDS011;29281;50.356;30.894;2022-08-16T03:27:34;7.84;;;4.68;;
43680;SDS011;29281;50.356;30.894;2022-08-16T03:28:43;8.38;;;5.56;;
43680;SDS011;29281;50.356;30.894;2022-08-16T03:29:48;7.77;;;4.71;;
43680;SDS011;29281;50.356;30.894;2022-08-16T03:30:56;8.78;;;4.82;;
43680;SDS011;29281;50.356;30.894;2022-08-16T03:32:03;8.67;;;4.95;;
43680;SDS011;29281;50.356;30.894;2022-08-16T03:33:12;5.89;;;4.73;;
43680;SDS011;29281;50.356;30.894;2022-08-16T03:34:20;8.26;;;4.64;;
43680;SDS011;29281;50.356;30.894;2022-08-16T03:35:30;5.93;;;4.74;;
43680;SDS011;29281;50.356;30.894;2022-08-16T03:36:48;5.81;;;4.46;;
43680;SDS011;29281;50.356;30.894;2022-08-16T03:37:54;9.81;;;4.75;;
43680;SDS011;29281;50.356;30.894;2022-08-16T03:39:03;8.17;;;4.36;;
43680;SDS011;29281;50.356;30.894;2022-08-16T03:40:09;8.22;;;4.58;;
43680;SDS011;29281;50.356;30.894;2022-08-16T03:41:17;8.38;;;4.57;;
43680;SDS011;29281;50.356;30.894;2022-08-16T03:42:23;9.89;;;4.94;;
43680;SDS011;29281;50.356;30.894;2022-08-16T03:43:28;8.53;;;5.33;;
43680;SDS011;29281;50.356;30.894;2022-08-16T03:44:33;9.61;;;4.54;;
43680;SDS011;29281;50.356;30.894;2022-08-16T03:45:38;7.40;;;4.64;;
43680;SDS011;29281;50.356;30.894;2022-08-16T03:46:44;8.06;;;4.75;;
43680;SDS011;29281;50.356;30.894;2022-08-16T03:47:50;7.89;;;4.70;;
43680;SDS011;29281;50.356;30.894;2022-08-16T03:48:58;6.22;;;4.61;;
43680;SDS011;29281;50.356;30.894;2022-08-16T03:50:05;7.94;;;4.69;;
43680;SDS011;29281;50.356;30.894;2022-08-16T03:51:12;8.58;;;5.21;;
43680;SDS011;29281;50.356;30.894;2022-08-16T03:52:18;6.57;;;4.58;;
43680;SDS011;29281;50.356;30.894;2022-08-16T03:53:24;7.52;;;4.97;;
43680;SDS011;29281;50.356;30.894;2022-08-16T03:54:32;6.01;;;4.51;;
43680;SDS011;29281;50.356;30.894;2022-08-16T03:55:39;9.42;;;5.03;;
43680;SDS011;29281;50.356;30.894;2022-08-16T03:56:46;9.27;;;4.78;;
43680;SDS011;29281;50.356;30.894;2022-08-16T03:57:52;7.71;;;4.98;;
43680;SDS011;29281;50.356;30.894;2022-08-16T03:59:01;8.11;;;4.62;;
43680;SDS011;29281;50.356;30.894;2022-08-16T04:00:27;6.59;;;4.43;;
43680;SDS011;29281;50.356;30.894;2022-08-16T04:01:24;6.85;;;4.66;;
43680;SDS011;29281;50.356;30.894;2022-08-16T04:02:30;8.59;;;4.73;;
43680;SDS011;29281;50.356;30.894;2022-08-16T04:03:37;9.21;;;4.73;;
43680;SDS011;29281;50.356;30.894;2022-08-16T04:04:42;7.38;;;4.67;;
43680;SDS011;29281;50.356;30.894;2022-08-16T04:05:46;7.85;;;4.69;;
43680;SDS011;29281;50.356;30.894;2022-08-16T04:06:52;6.94;;;4.82;;
43680;SDS011;29281;50.356;30.894;2022-08-16T04:07:58;7.12;;;5.09;;
43680;SDS011;29281;50.356;30.894;2022-08-16T04:09:01;8.08;;;4.92;;
43680;SDS011;29281;50.356;30.894;2022-08-16T04:10:11;6.98;;;4.47;;
43680;SDS011;29281;50.356;30.894;2022-08-16T04:11:20;12.25;;;5.09;;
43680;SDS011;29281;50.356;30.894;2022-08-16T04:12:24;5.73;;;4.53;;
43680;SDS011;29281;50.356;30.894;2022-08-16T04:13:31;8.79;;;5.03;;
43680;SDS011;29281;50.356;30.894;2022-08-16T04:14:37;9.82;;;5.24;;
43680;SDS011;29281;50.356;30.894;2022-08-16T04:15:43;7.82;;;4.91;;
43680;SDS011;29281;50.356;30.894;2022-08-16T04:16:49;8.70;;;4.82;;
43680;SDS011;29281;50.356;30.894;2022-08-16T04:17:58;6.74;;;4.82;;
43680;SDS011;29281;50.356;30.894;2022-08-16T04:19:07;9.51;;;4.65;;
43680;SDS011;29281;50.356;30.894;2022-08-16T04:20:15;7.69;;;4.67;;
43680;SDS011;29281;50.356;30.894;2022-08-16T04:21:21;10.76;;;5.09;;
43680;SDS011;29281;50.356;30.894;2022-08-16T04:22:34;7.76;;;4.78;;
43680;SDS011;29281;50.356;30.894;2022-08-16T04:23:40;7.21;;;4.76;;
43680;SDS011;29281;50.356;30.894;2022-08-16T04:24:44;7.05;;;5.11;;
43680;SDS011;29281;50.356;30.894;2022-08-16T04:25:51;7.44;;;4.70;;
43680;SDS011;29281;50.356;30.894;2022-08-16T04:26:55;7.07;;;4.41;;
43680;SDS011;29281;50.356;30.894;2022-08-16T04:28:02;6.78;;;4.63;;
43680;SDS011;29281;50.356;30.894;2022-08-16T04:29:10;7.03;;;4.97;;
43680;SDS011;29281;50.356;30.894;2022-08-16T04:30:17;8.97;;;5.11;;
43680;SDS011;29281;50.356;30.894;2022-08-16T04:31:31;8.89;;;4.97;;
43680;SDS011;29281;50.356;30.894;2022-08-16T04:32:36;6.23;;;4.53;;
43680;SDS011;29281;50.356;30.894;2022-08-16T04:33:43;7.47;;;4.97;;
43680;SDS011;29281;50.356;30.894;2022-08-16T04:34:48;8.08;;;5.15;;
43680;SDS011;29281;50.356;30.894;2022-08-16T04:35:52;6.34;;;4.80;;
43680;SDS011;29281;50.356;30.894;2022-08-16T04:37:08;7.56;;;4.83;;
43680;SDS011;29281;50.356;30.894;2022-08-16T04:38:15;8.13;;;4.77;;
43680;SDS011;29281;50.356;30.894;2022-08-16T04:39:19;7.87;;;4.71;;
43680;SDS011;29281;50.356;30.894;2022-08-16T04:40:26;8.79;;;4.73;;
43680;SDS011;29281;50.356;30.894;2022-08-16T04:41:32;5.83;;;4.96;;
43680;SDS011;29281;50.356;30.894;2022-08-16T04:42:39;6.43;;;4.88;;
43680;SDS011;29281;50.356;30.894;2022-08-16T04:43:47;7.68;;;5.05;;
43680;SDS011;29281;50.356;30.894;2022-08-16T04:44:53;6.61;;;4.88;;
43680;SDS011;29281;50.356;30.894;2022-08-16T04:45:59;8.33;;;5.14;;
43680;SDS011;29281;50.356;30.894;2022-08-16T04:47:06;9.40;;;4.82;;
43680;SDS011;29281;50.356;30.894;2022-08-16T04:48:16;9.41;;;5.01;;
43680;SDS011;29281;50.356;30.894;2022-08-16T04:49:24;7.01;;;5.04;;
43680;SDS011;29281;50.356;30.894;2022-08-16T04:50:32;9.50;;;4.99;;
43680;SDS011;29281;50.356;30.894;2022-08-16T04:51:38;8.74;;;4.85;;
43680;SDS011;29281;50.356;30.894;2022-08-16T04:52:44;6.56;;;4.52;;
43680;SDS011;29281;50.356;30.894;2022-08-16T04:53:51;9.94;;;5.19;;
43680;SDS011;29281;50.356;30.894;2022-08-16T04:54:57;6.92;;;4.73;;
43680;SDS011;29281;50.356;30.894;2022-08-16T04:56:05;8.28;;;5.03;;
43680;SDS011;29281;50.356;30.894;2022-08-16T04:57:14;7.19;;;5.13;;
43680;SDS011;29281;50.356;30.894;2022-08-16T04:58:18;6.89;;;4.77;;
43680;SDS011;29281;50.356;30.894;2022-08-16T04:59:29;9.11;;;5.24;;
43680;SDS011;29281;50.356;30.894;2022-08-16T05:00:38;8.78;;;5.04;;
43680;SDS011;29281;50.356;30.894;2022-08-16T05:01:44;6.40;;;4.46;;
43680;SDS011;29281;50.356;30.894;2022-08-16T05:02:52;6.99;;;4.87;;
43680;SDS011;29281;50.356;30.894;2022-08-16T05:04:02;7.64;;;4.70;;
43680;SDS011;29281;50.356;30.894;2022-08-16T05:05:09;8.76;;;4.62;;
43680;SDS011;29281;50.356;30.894;2022-08-16T05:06:16;8.92;;;4.79;;
43680;SDS011;29281;50.356;30.894;2022-08-16T05:07:23;8.58;;;4.73;;
43680;SDS011;29281;50.356;30.894;2022-08-16T05:08:37;7.00;;;4.61;;
43680;SDS011;29281;50.356;30.894;2022-08-16T05:09:46;9.69;;;4.72;;
43680;SDS011;29281;50.356;30.894;2022-08-16T05:10:52;9.06;;;5.14;;
43680;SDS011;29281;50.356;30.894;2022-08-16T05:12:02;8.01;;;5.23;;
43680;SDS011;29281;50.356;30.894;2022-08-16T05:13:07;8.42;;;4.21;;
43680;SDS011;29281;50.356;30.894;2022-08-16T05:14:12;7.59;;;4.57;;
43680;SDS011;29281;50.356;30.894;2022-08-16T05:15:19;5.83;;;4.24;;
43680;SDS011;29281;50.356;30.894;2022-08-16T05:16:27;6.12;;;4.26;;
43680;SDS011;29281;50.356;30.894;2022-08-16T05:17:35;4.99;;;4.16;;
43680;SDS011;29281;50.356;30.894;2022-08-16T05:18:43;7.12;;;4.73;;
43680;SDS011;29281;50.356;30.894;2022-08-16T05:19:46;7.59;;;4.34;;
43680;SDS011;29281;50.356;30.894;2022-08-16T05:20:54;10.52;;;4.87;;
43680;SDS011;29281;50.356;30.894;2022-08-16T05:22:00;7.39;;;4.81;;
43680;SDS011;29281;50.356;30.894;2022-08-16T05:23:05;10.54;;;4.26;;
43680;SDS011;29281;50.356;30.894;2022-08-16T05:24:13;7.54;;;4.74;;
43680;SDS011;29281;50.356;30.894;2022-08-16T05:25:19;8.33;;;4.67;;
43680;SDS011;29281;50.356;30.894;2022-08-16T05:26:27;8.97;;;5.37;;
43680;SDS011;29281;50.356;30.894;2022-08-16T05:27:34;8.89;;;5.05;;
43680;SDS011;29281;50.356;30.894;2022-08-16T05:28:40;12.48;;;4.94;;
43680;SDS011;29281;50.356;30.894;2022-08-16T05:29:45;6.88;;;4.43;;
43680;SDS011;29281;50.356;30.894;2022-08-16T05:30:54;7.42;;;4.60;;
43680;SDS011;29281;50.356;30.894;2022-08-16T05:32:03;6.87;;;4.64;;
43680;SDS011;29281;50.356;30.894;2022-08-16T05:33:11;9.23;;;4.81;;
43680;SDS011;29281;50.356;30.894;2022-08-16T05:34:17;8.27;;;4.53;;
43680;SDS011;29281;50.356;30.894;2022-08-16T05:35:24;6.98;;;4.37;;
43680;SDS011;29281;50.356;30.894;2022-08-16T05:36:48;8.44;;;4.92;;
43680;SDS011;29281;50.356;30.894;2022-08-16T05:37:54;8.11;;;4.91;;
43680;SDS011;29281;50.356;30.894;2022-08-16T05:39:01;8.09;;;4.56;;
43680;SDS011;29281;50.356;30.894;2022-08-16T05:40:07;7.38;;;4.49;;
43680;SDS011;29281;50.356;30.894;2022-08-16T05:41:16;13.74;;;4.29;;
43680;SDS011;29281;50.356;30.894;2022-08-16T05:42:24;9.77;;;4.58;;
43680;SDS011;29281;50.356;30.894;2022-08-16T05:43:31;8.62;;;5.14;;
43680;SDS011;29281;50.356;30.894;2022-08-16T05:44:38;6.54;;;4.22;;
43680;SDS011;29281;50.356;30.894;2022-08-16T05:45:41;7.47;;;4.51;;
43680;SDS011;29281;50.356;30.894;2022-08-16T05:46:47;7.08;;;4.68;;
43680;SDS011;29281;50.356;30.894;2022-08-16T05:47:54;6.61;;;4.64;;
43680;SDS011;29281;50.356;30.894;2022-08-16T05:49:00;6.82;;;4.54;;
43680;SDS011;29281;50.356;30.894;2022-08-16T05:50:08;7.06;;;4.66;;
43680;SDS011;29281;50.356;30.894;2022-08-16T05:51:12;8.19;;;4.39;;
43680;SDS011;29281;50.356;30.894;2022-08-16T05:52:17;7.54;;;4.70;;
43680;SDS011;29281;50.356;30.894;2022-08-16T05:53:23;7.14;;;5.02;;
43680;SDS011;29281;50.356;30.894;2022-08-16T05:54:31;6.42;;;4.67;;
43680;SDS011;29281;50.356;30.894;2022-08-16T05:55:38;6.45;;;4.46;;
43680;SDS011;29281;50.356;30.894;2022-08-16T05:56:43;7.67;;;5.02;;
43680;SDS011;29281;50.356;30.894;2022-08-16T05:57:53;7.38;;;4.67;;
43680;SDS011;29281;50.356;30.894;2022-08-16T05:58:58;6.99;;;4.78;;
43680;SDS011;29281;50.356;30.894;2022-08-16T06:00:04;7.83;;;4.53;;
43680;SDS011;29281;50.356;30.894;2022-08-16T06:01:18;9.61;;;5.00;;
43680;SDS011;29281;50.356;30.894;2022-08-16T06:02:25;6.48;;;4.39;;
43680;SDS011;29281;50.356;30.894;2022-08-16T06:03:39;8.31;;;4.68;;
43680;SDS011;29281;50.356;30.894;2022-08-16T06:04:42;8.62;;;4.99;;
43680;SDS011;29281;50.356;30.894;2022-08-16T06:05:51;9.22;;;4.47;;
43680;SDS011;29281;50.356;30.894;2022-08-16T06:06:57;8.19;;;4.79;;
43680;SDS011;29281;50.356;30.894;2022-08-16T06:08:03;7.88;;;5.05;;
43680;SDS011;29281;50.356;30.894;2022-08-16T06:09:10;9.03;;;4.92;;
43680;SDS011;29281;50.356;30.894;2022-08-16T06:10:17;8.41;;;4.93;;
43680;SDS011;29281;50.356;30.894;2022-08-16T06:11:24;7.19;;;4.69;;
43680;SDS011;29281;50.356;30.894;2022-08-16T06:12:34;9.54;;;4.98;;
43680;SDS011;29281;50.356;30.894;2022-08-16T06:13:40;9.08;;;5.26;;
43680;SDS011;29281;50.356;30.894;2022-08-16T06:14:50;7.81;;;4.73;;
43680;SDS011;29281;50.356;30.894;2022-08-16T06:15:56;9.77;;;5.33;;
43680;SDS011;29281;50.356;30.894;2022-08-16T06:17:00;11.50;;;5.34;;
43680;SDS011;29281;50.356;30.894;2022-08-16T06:18:06;7.48;;;4.89;;
43680;SDS011;29281;50.356;30.894;2022-08-16T06:19:10;7.76;;;4.70;;
43680;SDS011;29281;50.356;30.894;2022-08-16T06:20:18;8.12;;;4.72;;
43680;SDS011;29281;50.356;30.894;2022-08-16T06:21:28;8.38;;;4.93;;
43680;SDS011;29281;50.356;30.894;2022-08-16T06:22:37;8.83;;;4.86;;
43680;SDS011;29281;50.356;30.894;2022-08-16T06:23:42;9.95;;;4.56;;
43680;SDS011;29281;50.356;30.894;2022-08-16T06:24:48;9.58;;;5.11;;
43680;SDS011;29281;50.356;30.894;2022-08-16T06:25:54;8.84;;;5.45;;
43680;SDS011;29281;50.356;30.894;2022-08-16T06:27:08;6.82;;;5.18;;
43680;SDS011;29281;50.356;30.894;2022-08-16T06:28:12;7.57;;;5.21;;
43680;SDS011;29281;50.356;30.894;2022-08-16T06:29:16;11.19;;;5.43;;
43680;SDS011;29281;50.356;30.894;2022-08-16T06:30:28;7.06;;;4.79;;
43680;SDS011;29281;50.356;30.894;2022-08-16T06:31:36;7.23;;;5.17;;
43680;SDS011;29281;50.356;30.894;2022-08-16T06:32:42;8.45;;;5.16;;
43680;SDS011;29281;50.356;30.894;2022-08-16T06:33:49;8.87;;;5.03;;
43680;SDS011;29281;50.356;30.894;2022-08-16T06:34:54;10.90;;;5.19;;
43680;SDS011;29281;50.356;30.894;2022-08-16T06:36:00;11.07;;;5.43;;
43680;SDS011;29281;50.356;30.894;2022-08-16T06:37:09;8.52;;;5.36;;
43680;SDS011;29281;50.356;30.894;2022-08-16T06:38:14;9.86;;;5.12;;
43680;SDS011;29281;50.356;30.894;2022-08-16T06:39:23;8.21;;;5.14;;
43680;SDS011;29281;50.356;30.894;2022-08-16T06:40:36;7.90;;;5.63;;
43680;SDS011;29281;50.356;30.894;2022-08-16T06:41:39;8.88;;;5.43;;
43680;SDS011;29281;50.356;30.894;2022-08-16T06:42:56;10.42;;;5.60;;
43680;SDS011;29281;50.356;30.894;2022-08-16T06:44:16;11.51;;;5.49;;
43680;SDS011;29281;50.356;30.894;2022-08-16T06:45:21;10.09;;;5.92;;
43680;SDS011;29281;50.356;30.894;2022-08-16T06:46:34;10.82;;;5.85;;
43680;SDS011;29281;50.356;30.894;2022-08-16T06:47:45;12.68;;;6.34;;
43680;SDS011;29281;50.356;30.894;2022-08-16T06:48:50;10.86;;;6.34;;
43680;SDS011;29281;50.356;30.894;2022-08-16T06:49:56;11.97;;;6.03;;